createdAt,value
2023-02-11T00:01:29.971Z,36.40
2023-02-11T00:03:56.952Z,37.61
2023-02-11T00:06:23.950Z,37.48
2023-02-11T00:08:51.881Z,37.37
2023-02-11T00:11:20.694Z,38.53
2023-02-11T00:13:48.668Z,37.68
2023-02-11T00:16:16.943Z,38.57
2023-02-11T00:18:43.791Z,38.47
2023-02-11T00:21:17.818Z,36.74
2023-02-11T00:23:45.022Z,37.09
2023-02-11T00:26:23.695Z,37.51
2023-02-11T00:28:50.527Z,37.20
2023-02-11T00:31:18.146Z,37.55
2023-02-11T00:33:46.289Z,37.65
2023-02-11T00:36:26.066Z,38.34
2023-02-11T00:38:53.350Z,38.97
2023-02-11T00:41:21.610Z,37.56
2023-02-11T00:43:48.362Z,38.85
2023-02-11T00:46:15.381Z,39.01
2023-02-11T00:48:42.353Z,39.69
2023-02-11T00:51:09.223Z,38.15
2023-02-11T00:53:36.183Z,38.37
2023-02-11T00:56:05.789Z,38.09
2023-02-11T00:58:32.594Z,37.72
2023-02-11T01:00:59.765Z,37.90
2023-02-11T01:03:26.601Z,38.06
2023-02-11T01:05:53.445Z,38.69
2023-02-11T01:08:20.246Z,38.59
2023-02-11T01:11:03.047Z,37.85
2023-02-11T01:13:29.930Z,37.03
2023-02-11T01:15:57.168Z,35.99
2023-02-11T01:18:25.263Z,34.74
2023-02-11T01:20:52.585Z,35.26
2023-02-11T01:23:19.406Z,34.38
2023-02-11T01:25:46.126Z,33.16
2023-02-11T01:28:20.357Z,31.62
2023-02-11T01:30:48.280Z,31.34
2023-02-11T01:33:15.032Z,30.99
2023-02-11T01:35:42.829Z,32.72
2023-02-11T01:38:18.950Z,30.74
2023-02-11T01:40:56.218Z,31.00
2023-02-11T01:43:23.942Z,31.16
2023-02-11T01:46:14.064Z,31.71
2023-02-11T01:49:03.334Z,32.79
2023-02-11T01:51:42.301Z,32.76
2023-02-11T01:54:09.593Z,32.27
2023-02-11T01:56:39.861Z,32.23
2023-02-11T01:59:34.858Z,32.71
2023-02-11T02:02:04.563Z,34.37
2023-02-11T02:04:36.001Z,34.93
2023-02-11T02:07:06.846Z,36.11
2023-02-11T02:09:37.239Z,36.40
2023-02-11T02:12:04.090Z,36.24
2023-02-11T02:14:30.948Z,35.45
2023-02-11T02:16:57.662Z,35.43
2023-02-11T02:20:18.535Z,35.80
2023-02-11T02:23:06.299Z,35.09
2023-02-11T02:25:48.115Z,35.17
2023-02-11T02:28:36.946Z,34.75
2023-02-11T02:31:06.703Z,33.61
2023-02-11T02:34:06.612Z,33.19
2023-02-11T02:36:36.223Z,34.06
2023-02-11T02:39:08.911Z,33.71
2023-02-11T02:41:55.441Z,34.42
2023-02-11T02:44:22.299Z,36.28
2023-02-11T02:46:49.452Z,36.90
2023-02-11T02:49:16.536Z,39.99
2023-02-11T02:52:01.672Z,39.96
2023-02-11T02:54:59.316Z,39.01
2023-02-11T02:57:45.825Z,38.06
2023-02-11T03:00:31.921Z,39.33
2023-02-11T03:03:21.880Z,38.94
2023-02-11T03:05:51.709Z,39.07
2023-02-11T03:11:32.962Z,38.65
2023-02-11T03:14:00.408Z,37.76
2023-02-11T03:16:27.647Z,38.24
2023-02-11T03:19:00.911Z,38.36
2023-02-11T03:21:28.994Z,39.45
2023-02-11T03:23:57.634Z,39.67
2023-02-11T03:26:34.865Z,40.78
2023-02-11T03:29:42.853Z,39.94
2023-02-11T03:32:32.582Z,39.20
2023-02-11T03:35:14.849Z,39.64
2023-02-11T03:38:02.625Z,39.00
2023-02-11T03:40:31.795Z,39.71
2023-02-11T03:43:00.911Z,39.75
2023-02-11T03:45:27.674Z,39.05
2023-02-11T03:48:07.832Z,39.76
2023-02-11T03:50:34.702Z,37.67
2023-02-11T03:53:02.318Z,36.58
2023-02-11T03:55:29.288Z,36.39
2023-02-11T03:57:56.286Z,36.27
2023-02-11T04:00:32.834Z,35.75
2023-02-11T04:02:59.560Z,35.74
2023-02-11T04:05:26.258Z,34.48
2023-02-11T04:07:53.351Z,34.86
2023-02-11T04:10:20.471Z,34.80
2023-02-11T04:13:07.126Z,33.81
2023-02-11T04:15:33.863Z,33.98
2023-02-11T04:18:01.009Z,33.52
2023-02-11T04:20:27.768Z,33.26
2023-02-11T04:22:54.653Z,33.79
2023-02-11T04:25:21.379Z,33.72
2023-02-11T04:27:48.153Z,33.17
2023-02-11T04:30:14.883Z,33.47
2023-02-11T04:32:41.659Z,33.03
2023-02-11T04:35:09.546Z,33.70
2023-02-11T04:37:36.347Z,33.08
2023-02-11T04:40:03.186Z,32.58
2023-02-11T04:42:30.332Z,32.66
2023-02-11T04:44:57.111Z,32.84
2023-02-11T04:47:24.202Z,32.46
2023-02-11T04:49:51.310Z,32.41
2023-02-11T04:52:18.072Z,31.91
2023-02-11T04:54:44.946Z,32.60
2023-02-11T04:57:11.722Z,32.42
2023-02-11T04:59:38.612Z,31.80
2023-02-11T05:02:05.709Z,31.51
2023-02-11T05:04:32.818Z,31.87
2023-02-11T05:07:00.068Z,31.98
2023-02-11T05:09:27.167Z,32.17
2023-02-11T05:11:54.173Z,32.93
2023-02-11T05:14:20.942Z,32.64
2023-02-11T05:16:48.134Z,32.23
2023-02-11T05:19:14.983Z,32.21
2023-02-11T05:21:53.179Z,33.01
2023-02-11T05:25:06.049Z,31.94
2023-02-11T05:27:33.300Z,31.08
2023-02-11T05:30:00.137Z,30.70
2023-02-11T05:32:26.887Z,31.82
2023-02-11T05:34:53.753Z,31.71
2023-02-11T05:37:20.572Z,30.45
2023-02-11T05:39:47.429Z,30.46
2023-02-11T05:42:14.944Z,30.79
2023-02-11T05:44:42.100Z,30.47
2023-02-11T05:47:08.888Z,29.51
2023-02-11T05:50:19.035Z,30.01
2023-02-11T05:52:46.160Z,29.38
2023-02-11T05:55:13.517Z,28.93
2023-02-11T05:57:40.300Z,29.10
2023-02-11T06:00:07.384Z,29.51
2023-02-11T06:02:34.169Z,29.89
2023-02-11T06:05:00.932Z,29.10
2023-02-11T06:07:27.750Z,29.39
2023-02-11T06:09:54.527Z,29.23
2023-02-11T06:12:21.919Z,29.01
2023-02-11T06:14:48.758Z,28.34
2023-02-11T06:17:15.856Z,27.85
2023-02-11T06:19:42.626Z,27.46
2023-02-11T06:22:09.375Z,27.98
2023-02-11T06:24:59.748Z,27.34
2023-02-11T06:27:24.374Z,26.59
2023-02-11T06:29:51.080Z,26.81
2023-02-11T06:32:39.315Z,25.84
2023-02-11T06:35:05.229Z,28.78
2023-02-11T06:37:33.528Z,26.50
2023-02-11T06:40:00.286Z,26.50
2023-02-11T06:42:27.426Z,26.86
2023-02-11T06:44:54.334Z,26.78
2023-02-11T06:47:21.178Z,26.56
2023-02-11T06:50:30.880Z,26.26
2023-02-11T06:52:59.378Z,26.29
2023-02-11T06:55:26.307Z,27.37
2023-02-11T06:57:54.335Z,27.51
2023-02-11T07:00:21.157Z,27.93
2023-02-11T07:02:47.918Z,27.48
2023-02-11T07:05:14.975Z,28.13
2023-02-11T07:07:41.702Z,28.43
2023-02-11T07:10:08.624Z,28.22
2023-02-11T07:12:35.741Z,27.99
2023-02-11T07:15:03.049Z,28.94
2023-02-11T07:17:29.758Z,30.26
2023-02-11T07:19:58.341Z,31.44
2023-02-11T07:22:27.324Z,30.61
2023-02-11T07:24:54.041Z,32.05
2023-02-11T07:27:20.798Z,32.33
2023-02-11T07:29:47.522Z,32.11
2023-02-11T07:32:15.653Z,31.48
2023-02-11T07:34:42.601Z,32.16
2023-02-11T07:37:09.654Z,31.53
2023-02-11T07:39:36.338Z,31.52
2023-02-11T07:42:03.493Z,31.33
2023-02-11T07:44:30.691Z,32.01
2023-02-11T07:46:57.666Z,30.98
2023-02-11T07:49:24.548Z,31.61
2023-02-11T07:51:51.484Z,31.41
2023-02-11T07:54:18.387Z,31.76
2023-02-11T07:56:45.182Z,32.58
2023-02-11T07:59:12.307Z,31.85
2023-02-11T08:01:42.294Z,32.12
2023-02-11T08:04:09.688Z,32.69
2023-02-11T08:06:40.909Z,32.54
2023-02-11T08:09:07.967Z,33.16
2023-02-11T08:11:34.685Z,33.48
2023-02-11T08:14:01.442Z,33.66
2023-02-11T08:16:48.169Z,32.53
2023-02-11T08:19:16.016Z,33.41
2023-02-11T08:21:42.892Z,33.31
2023-02-11T08:24:09.759Z,34.21
2023-02-11T08:26:36.556Z,36.44
2023-02-11T08:29:11.197Z,36.71
2023-02-11T08:31:40.956Z,37.49
2023-02-11T08:34:07.817Z,36.46
2023-02-11T08:36:36.121Z,37.64
2023-02-11T08:39:19.540Z,38.98
2023-02-11T08:41:53.729Z,39.39
2023-02-11T08:44:23.822Z,39.47
2023-02-11T08:46:50.790Z,39.49
2023-02-11T08:49:17.580Z,40.01
2023-02-11T08:51:44.334Z,39.58
2023-02-11T08:54:11.528Z,39.75
2023-02-11T08:56:38.283Z,39.25
2023-02-11T08:59:06.440Z,38.47
2023-02-11T09:01:33.320Z,36.56
2023-02-11T09:04:01.300Z,37.39
2023-02-11T09:06:29.436Z,38.28
2023-02-11T09:08:59.127Z,37.96
2023-02-11T09:11:31.575Z,36.66
2023-02-11T09:13:59.678Z,37.45
2023-02-11T09:16:28.445Z,37.24
2023-02-11T09:18:57.391Z,36.66
2023-02-11T09:21:24.209Z,35.64
2023-02-11T09:23:51.271Z,35.31
2023-02-11T09:26:36.904Z,34.89
2023-02-11T09:29:03.990Z,35.75
2023-02-11T09:31:50.731Z,36.06
2023-02-11T09:34:17.499Z,35.65
2023-02-11T09:37:04.073Z,35.60
2023-02-11T09:39:46.766Z,34.19
2023-02-11T09:42:39.991Z,34.60
2023-02-11T09:45:12.933Z,35.31
2023-02-11T09:47:47.737Z,35.36
2023-02-11T09:50:36.998Z,34.99
2023-02-11T09:53:05.103Z,34.15
2023-02-11T09:55:55.343Z,34.88
2023-02-11T09:58:26.469Z,37.71
2023-02-11T10:01:30.134Z,39.52
2023-02-11T10:04:04.556Z,40.49
2023-02-11T10:06:45.621Z,40.45
2023-02-11T10:09:17.069Z,42.06
2023-02-11T10:11:55.807Z,41.36
2023-02-11T10:14:47.346Z,41.60
2023-02-11T10:18:07.957Z,40.75
2023-02-11T10:20:38.573Z,41.12
2023-02-11T10:23:30.657Z,41.71
2023-02-11T10:25:57.964Z,41.08
2023-02-11T10:28:31.159Z,41.29
2023-02-11T10:31:12.195Z,44.90
2023-02-11T10:34:07.079Z,41.95
2023-02-11T10:36:37.343Z,41.61
2023-02-11T10:39:18.099Z,41.66
2023-02-11T10:41:46.603Z,40.71
2023-02-11T10:44:43.330Z,41.35
2023-02-11T10:47:17.082Z,43.16
2023-02-11T10:49:45.116Z,42.57
2023-02-11T10:52:17.920Z,42.65
2023-02-11T10:55:06.404Z,43.28
2023-02-11T10:57:35.459Z,43.67
2023-02-11T11:00:24.138Z,43.52
2023-02-11T11:02:59.048Z,42.91
2023-02-11T11:05:31.544Z,43.44
2023-02-11T11:08:06.207Z,43.48
2023-02-11T11:10:41.396Z,43.00
2023-02-11T11:13:24.693Z,43.79
2023-02-11T11:16:13.838Z,42.92
2023-02-11T11:18:42.085Z,43.56
2023-02-11T11:21:16.314Z,43.55
2023-02-11T11:23:59.648Z,43.44
2023-02-11T11:26:28.480Z,43.42
2023-02-11T11:29:02.924Z,44.48
2023-02-11T11:31:46.473Z,44.99
2023-02-11T11:34:22.137Z,45.37
2023-02-11T11:36:48.988Z,45.26
2023-02-11T11:39:23.146Z,44.84
2023-02-11T11:41:57.142Z,44.77
2023-02-11T11:44:35.574Z,44.14
2023-02-11T11:47:11.402Z,43.75
2023-02-11T11:50:00.036Z,43.97
2023-02-11T11:52:52.114Z,44.19
2023-02-11T11:55:35.058Z,43.95
2023-02-11T11:58:01.807Z,44.15
2023-02-11T12:00:37.346Z,44.33
2023-02-11T12:03:36.527Z,44.02
2023-02-11T12:06:15.604Z,43.98
2023-02-11T12:09:09.327Z,44.23
2023-02-11T12:12:08.284Z,44.20
2023-02-11T12:14:38.832Z,43.88
2023-02-11T12:17:17.832Z,43.98
2023-02-11T12:20:11.997Z,42.54
2023-02-11T12:23:00.321Z,41.50
2023-02-11T12:25:43.976Z,41.81
2023-02-11T12:28:33.496Z,41.33
2023-02-11T12:31:20.781Z,39.56
2023-02-11T12:33:55.360Z,40.05
2023-02-11T12:36:42.547Z,41.27
2023-02-11T12:39:22.257Z,41.08
2023-02-11T12:42:31.081Z,41.68
2023-02-11T12:45:12.976Z,40.84
2023-02-11T12:48:21.504Z,40.60
2023-02-11T12:51:08.588Z,40.10
2023-02-11T12:53:47.853Z,39.77
2023-02-11T12:56:48.214Z,39.73
2023-02-11T12:59:20.811Z,38.75
2023-02-11T13:01:47.609Z,39.59
2023-02-11T13:04:21.338Z,39.94
2023-02-11T13:06:53.819Z,38.71
2023-02-11T13:09:26.728Z,38.56
2023-02-11T13:11:55.499Z,38.48
2023-02-11T13:14:26.688Z,38.50
2023-02-11T13:16:57.704Z,38.30
2023-02-11T13:19:39.269Z,38.13
2023-02-11T13:22:08.187Z,37.81
2023-02-11T13:24:44.831Z,37.75
2023-02-11T13:27:25.276Z,37.84
2023-02-11T13:30:16.784Z,38.12
2023-02-11T13:33:15.682Z,37.26
2023-02-11T13:36:04.547Z,38.18
2023-02-11T13:38:31.730Z,37.54
2023-02-11T13:41:03.132Z,36.52
2023-02-11T13:43:34.260Z,36.45
2023-02-11T13:46:11.223Z,36.41
2023-02-11T13:48:39.831Z,35.89
2023-02-11T13:51:10.869Z,35.39
2023-02-11T13:53:52.302Z,35.34
2023-02-11T13:56:40.835Z,35.10
2023-02-11T13:59:45.744Z,31.42
2023-02-11T14:02:32.538Z,33.78
2023-02-11T14:05:08.198Z,36.27
2023-02-11T14:07:35.084Z,36.09
2023-02-11T14:10:05.275Z,34.28
2023-02-11T14:12:35.019Z,35.34
2023-02-11T14:15:22.640Z,34.00
2023-02-11T14:17:50.357Z,35.70
2023-02-11T14:20:34.895Z,35.87
2023-02-11T14:23:01.611Z,35.62
2023-02-11T14:25:28.355Z,36.17
2023-02-11T14:28:08.319Z,34.88
2023-02-11T14:30:39.988Z,35.26
2023-02-11T14:33:43.222Z,34.41
2023-02-11T14:36:39.060Z,35.28
2023-02-11T14:39:15.220Z,35.26
2023-02-11T14:41:43.515Z,35.37
2023-02-11T14:44:19.589Z,35.31
2023-02-11T14:46:48.053Z,35.00
2023-02-11T14:49:31.334Z,35.76
2023-02-11T14:52:09.060Z,35.35
2023-02-11T14:54:35.815Z,36.18
2023-02-11T14:57:16.739Z,36.09
2023-02-11T15:00:20.140Z,35.32
2023-02-11T15:02:48.418Z,35.90
2023-02-11T15:05:24.360Z,36.25
2023-02-11T15:08:02.768Z,35.36
2023-02-11T15:10:38.089Z,34.93
2023-02-11T15:13:05.166Z,34.51
2023-02-11T15:15:32.339Z,33.82
2023-02-11T15:18:00.812Z,34.54
2023-02-11T15:20:29.708Z,34.47
2023-02-11T15:23:02.895Z,34.43
2023-02-11T15:25:30.715Z,34.26
2023-02-11T15:27:58.575Z,35.76
2023-02-11T15:30:28.874Z,35.45
2023-02-11T15:32:57.357Z,34.34
2023-02-11T15:35:25.167Z,34.50
2023-02-11T15:37:52.181Z,35.96
2023-02-11T15:40:21.156Z,34.89
2023-02-11T15:43:07.757Z,36.09
2023-02-11T15:45:43.222Z,36.60
2023-02-11T15:48:14.368Z,35.97
2023-02-11T15:50:41.560Z,37.24
2023-02-11T15:53:44.936Z,37.82
2023-02-11T15:56:17.926Z,37.66
2023-02-11T15:58:46.225Z,37.52
2023-02-11T16:01:13.270Z,37.46
2023-02-11T16:03:43.212Z,38.94
2023-02-11T16:06:21.772Z,38.88
2023-02-11T16:09:00.621Z,38.45
2023-02-11T16:11:38.281Z,37.81
2023-02-11T16:14:21.786Z,38.12
2023-02-11T16:16:49.273Z,38.39
2023-02-11T16:19:18.437Z,37.79
2023-02-11T16:21:45.138Z,39.10
2023-02-11T16:24:31.780Z,39.40
2023-02-11T16:27:06.804Z,37.93
2023-02-11T16:29:35.793Z,38.38
2023-02-11T16:32:07.915Z,37.33
2023-02-11T16:34:34.814Z,37.79
2023-02-11T16:37:03.593Z,39.69
2023-02-11T16:39:30.602Z,39.54
2023-02-11T16:41:58.045Z,39.19
2023-02-11T16:44:24.837Z,39.50
2023-02-11T16:46:52.520Z,39.83
2023-02-11T16:49:20.226Z,39.92
2023-02-11T16:51:48.873Z,39.33
2023-02-11T16:54:16.207Z,39.20
2023-02-11T16:56:43.269Z,40.54
2023-02-11T16:59:10.038Z,40.42
2023-02-11T17:01:37.974Z,39.08
2023-02-11T17:04:04.824Z,39.55
2023-02-11T17:06:33.221Z,40.12
2023-02-11T17:09:02.508Z,40.40
2023-02-11T17:11:29.182Z,41.50
2023-02-11T17:13:55.861Z,40.89
2023-02-11T17:16:22.980Z,40.28
2023-02-11T17:18:51.066Z,39.70
2023-02-11T17:21:17.842Z,40.59
2023-02-11T17:23:47.682Z,40.22
2023-02-11T17:26:14.709Z,39.72
2023-02-11T17:28:41.418Z,40.25
2023-02-11T17:31:09.681Z,40.03
2023-02-11T17:33:36.801Z,41.44
2023-02-11T17:36:07.684Z,41.39
2023-02-11T17:38:34.923Z,40.76
2023-02-11T17:41:01.814Z,42.49
2023-02-11T17:43:29.977Z,40.95
2023-02-11T17:45:57.018Z,39.98
2023-02-11T17:48:23.980Z,41.21
2023-02-11T17:50:50.669Z,45.30
2023-02-11T17:53:17.378Z,46.51
2023-02-11T17:55:44.097Z,47.89
2023-02-11T17:58:10.902Z,49.26
2023-02-11T18:00:38.271Z,44.90
2023-02-11T18:03:05.011Z,45.14
2023-02-11T18:05:36.157Z,43.71
2023-02-11T18:08:04.040Z,44.12
2023-02-11T18:10:31.082Z,43.36
2023-02-11T18:12:58.315Z,43.54
2023-02-11T18:15:26.414Z,43.89
2023-02-11T18:17:54.905Z,42.41
2023-02-11T18:20:22.019Z,42.32
2023-02-11T18:22:48.811Z,43.49
2023-02-11T18:25:18.636Z,44.92
2023-02-11T18:27:45.494Z,45.56
2023-02-11T18:30:16.938Z,44.67
2023-02-11T18:32:43.645Z,45.21
2023-02-11T18:35:14.384Z,45.87
2023-02-11T18:37:44.471Z,45.71
2023-02-11T18:40:11.574Z,45.27
2023-02-11T18:42:38.708Z,44.82
2023-02-11T18:45:09.332Z,44.55
2023-02-11T18:47:39.535Z,44.70
2023-02-11T18:50:06.889Z,44.54
2023-02-11T18:52:34.272Z,44.20
2023-02-11T18:55:01.361Z,45.47
2023-02-11T18:57:28.494Z,44.86
2023-02-11T18:59:55.278Z,44.25
2023-02-11T19:02:24.817Z,45.97
2023-02-11T19:04:51.531Z,45.29
2023-02-11T19:07:18.655Z,45.52
2023-02-11T19:09:45.693Z,45.89
2023-02-11T19:12:12.878Z,45.77
2023-02-11T19:14:39.627Z,46.84
2023-02-11T19:17:06.934Z,46.29
2023-02-11T19:19:35.610Z,47.04
2023-02-11T19:22:02.782Z,47.14
2023-02-11T19:24:29.587Z,46.82
2023-02-11T19:26:57.589Z,45.96
2023-02-11T19:29:26.324Z,46.85
2023-02-11T19:31:53.171Z,48.31
2023-02-11T19:34:21.207Z,49.40
2023-02-11T19:36:48.825Z,47.71
2023-02-11T19:39:15.606Z,48.01
2023-02-11T19:41:43.531Z,48.15
2023-02-11T19:44:10.306Z,47.43
2023-02-11T19:46:38.019Z,50.11
2023-02-11T19:49:04.913Z,47.17
2023-02-11T19:51:31.976Z,46.14
2023-02-11T19:53:58.709Z,46.19
2023-02-11T19:56:26.505Z,46.90
2023-02-11T19:58:53.247Z,47.76
2023-02-11T20:01:20.864Z,50.25
2023-02-11T20:03:51.701Z,51.11
2023-02-11T20:06:24.181Z,51.59
2023-02-11T20:08:59.104Z,49.97
2023-02-11T20:11:25.940Z,49.40
2023-02-11T20:13:53.001Z,49.65
2023-02-11T20:16:21.300Z,49.80
2023-02-11T20:18:49.181Z,47.55
2023-02-11T20:21:31.042Z,48.28
2023-02-11T20:23:58.021Z,48.48
2023-02-11T20:26:32.286Z,47.20
2023-02-11T20:28:59.925Z,48.69
2023-02-11T20:31:27.061Z,48.79
2023-02-11T20:33:53.827Z,48.25
2023-02-11T20:36:24.649Z,47.54
2023-02-11T20:38:51.730Z,48.18
2023-02-11T20:41:24.358Z,47.32
2023-02-11T20:43:54.187Z,49.01
2023-02-11T20:46:26.829Z,48.33
2023-02-11T20:48:54.462Z,47.33
2023-02-11T20:51:28.903Z,47.48
2023-02-11T20:53:55.730Z,47.18
2023-02-11T20:56:24.006Z,45.17
2023-02-11T20:58:50.907Z,44.04
2023-02-11T21:01:38.377Z,43.15
2023-02-11T21:04:16.305Z,43.96
2023-02-11T21:06:48.150Z,43.56
2023-02-11T21:09:17.194Z,43.77
2023-02-11T21:11:43.881Z,43.43
2023-02-11T21:14:11.063Z,41.31
2023-02-11T21:16:37.762Z,41.50
2023-02-11T21:19:04.529Z,41.75
2023-02-11T21:21:31.382Z,40.16
2023-02-11T21:23:59.031Z,40.45
2023-02-11T21:26:25.731Z,39.48
2023-02-11T21:28:52.538Z,41.34
2023-02-11T21:31:21.757Z,38.90
2023-02-11T21:33:50.624Z,37.82
2023-02-11T21:36:17.503Z,37.40
2023-02-11T21:38:45.083Z,38.68
2023-02-11T21:41:11.775Z,38.72
2023-02-11T21:43:38.553Z,39.39
2023-02-11T21:46:10.863Z,40.06
2023-02-11T21:48:38.568Z,39.59
2023-02-11T21:51:07.269Z,39.12
2023-02-11T21:53:35.317Z,37.73
2023-02-11T21:56:12.868Z,38.40
2023-02-11T21:58:42.764Z,37.92
2023-02-11T22:01:16.651Z,36.48
2023-02-11T22:03:54.765Z,35.00
2023-02-11T22:06:30.262Z,34.00
2023-02-11T22:09:12.613Z,33.67
2023-02-11T22:11:42.179Z,34.28
2023-02-11T22:14:12.025Z,33.26
2023-02-11T22:16:39.137Z,32.08
2023-02-11T22:19:05.879Z,31.64
2023-02-11T22:21:33.053Z,30.64
2023-02-11T22:24:04.936Z,30.56
2023-02-11T22:26:32.175Z,30.37
2023-02-11T22:28:59.957Z,30.43
2023-02-11T22:31:29.403Z,29.35
2023-02-11T22:33:56.420Z,27.86
2023-02-11T22:36:25.032Z,27.38
2023-02-11T22:38:52.124Z,26.95
2023-02-11T22:41:19.271Z,27.70
2023-02-11T22:43:46.364Z,27.14
2023-02-11T22:46:16.118Z,27.01
2023-02-11T22:48:42.933Z,27.42
2023-02-11T22:51:14.904Z,26.40
2023-02-11T22:53:41.611Z,27.43
2023-02-11T22:56:14.802Z,28.48
2023-02-11T22:58:42.131Z,27.24
2023-02-11T23:01:09.212Z,29.12
2023-02-11T23:03:36.271Z,28.64
2023-02-11T23:06:03.371Z,29.54
2023-02-11T23:08:30.135Z,29.81
2023-02-11T23:11:04.727Z,30.03
2023-02-11T23:13:40.904Z,29.85
2023-02-11T23:16:09.655Z,29.67
2023-02-11T23:18:38.044Z,29.60
2023-02-11T23:21:10.092Z,29.86
2023-02-11T23:23:40.450Z,30.46
2023-02-11T23:26:10.903Z,30.30
2023-02-11T23:28:38.256Z,30.11
2023-02-11T23:31:29.647Z,30.28
2023-02-11T23:33:59.399Z,31.01
2023-02-11T23:36:26.416Z,31.68
2023-02-11T23:38:53.621Z,31.70
2023-02-11T23:41:20.702Z,30.76
2023-02-11T23:43:57.246Z,31.49
2023-02-11T23:46:29.353Z,32.07
2023-02-11T23:48:56.468Z,30.93
2023-02-11T23:51:23.690Z,31.84
2023-02-11T23:53:56.600Z,32.22
2023-02-11T23:56:28.741Z,32.46
2023-02-11T23:58:57.248Z,31.92
